sensor_id;sensor_type;location;lat;lon;timestamp;temperature;humidity
66726;HTU21D;53638;51.062;5.804;2022-10-22T00:00:16;15.48;118.99
66726;HTU21D;53638;51.062;5.804;2022-10-22T00:02:43;15.47;118.99
66726;HTU21D;53638;51.062;5.804;2022-10-22T00:05:09;15.46;118.99
66726;HTU21D;53638;51.062;5.804;2022-10-22T00:07:36;15.46;118.99
66726;HTU21D;53638;51.062;5.804;2022-10-22T00:10:04;15.45;118.99
66726;HTU21D;53638;51.062;5.804;2022-10-22T00:12:30;15.43;118.99
66726;HTU21D;53638;51.062;5.804;2022-10-22T00:14:57;15.41;118.99
66726;HTU21D;53638;51.062;5.804;2022-10-22T00:17:23;15.39;118.99
66726;HTU21D;53638;51.062;5.804;2022-10-22T00:19:49;15.38;118.99
66726;HTU21D;53638;51.062;5.804;2022-10-22T00:22:15;15.38;118.99
66726;HTU21D;53638;51.062;5.804;2022-10-22T00:24:41;15.36;118.99
66726;HTU21D;53638;51.062;5.804;2022-10-22T00:27:09;15.34;118.99
66726;HTU21D;53638;51.062;5.804;2022-10-22T00:29:35;15.36;118.99
66726;HTU21D;53638;51.062;5.804;2022-10-22T00:32:01;15.36;118.99
66726;HTU21D;53638;51.062;5.804;2022-10-22T00:34:27;15.37;118.99
66726;HTU21D;53638;51.062;5.804;2022-10-22T00:36:53;15.34;118.99
66726;HTU21D;53638;51.062;5.804;2022-10-22T00:39:21;15.32;118.99
66726;HTU21D;53638;51.062;5.804;2022-10-22T00:41:49;15.31;118.99
66726;HTU21D;53638;51.062;5.804;2022-10-22T00:47:20;15.24;118.99
66726;HTU21D;53638;51.062;5.804;2022-10-22T00:49:47;15.25;118.99
66726;HTU21D;53638;51.062;5.804;2022-10-22T00:52:14;15.24;118.99
66726;HTU21D;53638;51.062;5.804;2022-10-22T00:54:41;15.21;118.99
66726;HTU21D;53638;51.062;5.804;2022-10-22T00:57:08;15.22;118.99
66726;HTU21D;53638;51.062;5.804;2022-10-22T00:59:34;15.19;118.99
66726;HTU21D;53638;51.062;5.804;2022-10-22T01:02:01;15.18;118.99
66726;HTU21D;53638;51.062;5.804;2022-10-22T01:04:26;15.14;118.99
66726;HTU21D;53638;51.062;5.804;2022-10-22T01:06:52;15.12;118.99
66726;HTU21D;53638;51.062;5.804;2022-10-22T01:09:22;15.10;118.99
66726;HTU21D;53638;51.062;5.804;2022-10-22T01:11:57;15.07;118.99
66726;HTU21D;53638;51.062;5.804;2022-10-22T01:14:43;15.02;118.99
66726;HTU21D;53638;51.062;5.804;2022-10-22T01:17:23;15.00;118.99
66726;HTU21D;53638;51.062;5.804;2022-10-22T01:27:55;14.74;118.99
66726;HTU21D;53638;51.062;5.804;2022-10-22T01:30:24;14.71;118.99
66726;HTU21D;53638;51.062;5.804;2022-10-22T01:32:55;14.70;118.99
66726;HTU21D;53638;51.062;5.804;2022-10-22T01:35:28;14.67;118.99
66726;HTU21D;53638;51.062;5.804;2022-10-22T01:38:00;14.65;118.99
66726;HTU21D;53638;51.062;5.804;2022-10-22T01:40:28;14.62;118.99
66726;HTU21D;53638;51.062;5.804;2022-10-22T01:43:00;14.63;118.99
66726;HTU21D;53638;51.062;5.804;2022-10-22T01:45:32;14.60;118.99
66726;HTU21D;53638;51.062;5.804;2022-10-22T01:53:29;14.52;118.99
66726;HTU21D;53638;51.062;5.804;2022-10-22T01:56:07;14.50;118.99
66726;HTU21D;53638;51.062;5.804;2022-10-22T01:58:50;14.45;118.99
66726;HTU21D;53638;51.062;5.804;2022-10-22T02:04:16;14.45;118.99
66726;HTU21D;53638;51.062;5.804;2022-10-22T02:06:46;14.43;118.99
66726;HTU21D;53638;51.062;5.804;2022-10-22T02:09:16;14.38;118.99
66726;HTU21D;53638;51.062;5.804;2022-10-22T02:11:45;14.35;118.99
66726;HTU21D;53638;51.062;5.804;2022-10-22T02:14:13;14.33;118.99
66726;HTU21D;53638;51.062;5.804;2022-10-22T02:16:44;14.30;118.99
66726;HTU21D;53638;51.062;5.804;2022-10-22T02:19:18;14.28;118.99
66726;HTU21D;53638;51.062;5.804;2022-10-22T02:21:48;14.24;118.99
66726;HTU21D;53638;51.062;5.804;2022-10-22T02:24:14;14.21;118.99
66726;HTU21D;53638;51.062;5.804;2022-10-22T02:27:00;14.18;118.99
66726;HTU21D;53638;51.062;5.804;2022-10-22T02:29:37;14.14;118.99
66726;HTU21D;53638;51.062;5.804;2022-10-22T02:32:07;14.12;118.99
66726;HTU21D;53638;51.062;5.804;2022-10-22T02:34:34;14.10;118.99
66726;HTU21D;53638;51.062;5.804;2022-10-22T02:37:02;14.04;118.99
66726;HTU21D;53638;51.062;5.804;2022-10-22T02:39:30;13.98;118.99
66726;HTU21D;53638;51.062;5.804;2022-10-22T02:41:57;13.95;118.99
66726;HTU21D;53638;51.062;5.804;2022-10-22T02:44:24;13.93;118.99
66726;HTU21D;53638;51.062;5.804;2022-10-22T02:46:50;13.90;118.99
66726;HTU21D;53638;51.062;5.804;2022-10-22T02:49:16;13.91;118.99
66726;HTU21D;53638;51.062;5.804;2022-10-22T02:51:42;13.91;118.99
66726;HTU21D;53638;51.062;5.804;2022-10-22T02:54:08;13.91;118.99
66726;HTU21D;53638;51.062;5.804;2022-10-22T02:56:34;13.91;118.99
66726;HTU21D;53638;51.062;5.804;2022-10-22T02:58:59;13.93;118.99
66726;HTU21D;53638;51.062;5.804;2022-10-22T03:01:25;13.95;118.99
66726;HTU21D;53638;51.062;5.804;2022-10-22T03:03:51;13.98;118.99
66726;HTU21D;53638;51.062;5.804;2022-10-22T03:06:17;13.99;118.99
66726;HTU21D;53638;51.062;5.804;2022-10-22T03:08:43;14.01;118.99
66726;HTU21D;53638;51.062;5.804;2022-10-22T03:11:08;14.05;118.99
66726;HTU21D;53638;51.062;5.804;2022-10-22T03:13:34;14.13;118.99
66726;HTU21D;53638;51.062;5.804;2022-10-22T03:16:00;14.20;118.99
66726;HTU21D;53638;51.062;5.804;2022-10-22T03:18:26;14.20;118.99
66726;HTU21D;53638;51.062;5.804;2022-10-22T03:21:14;14.23;118.99
66726;HTU21D;53638;51.062;5.804;2022-10-22T03:23:44;14.23;118.99
66726;HTU21D;53638;51.062;5.804;2022-10-22T03:26:13;14.26;118.99
66726;HTU21D;53638;51.062;5.804;2022-10-22T03:28:40;14.28;118.99
66726;HTU21D;53638;51.062;5.804;2022-10-22T03:31:06;14.33;118.99
66726;HTU21D;53638;51.062;5.804;2022-10-22T03:33:32;14.28;118.99
66726;HTU21D;53638;51.062;5.804;2022-10-22T03:35:59;14.30;118.99
66726;HTU21D;53638;51.062;5.804;2022-10-22T03:38:25;14.30;118.99
66726;HTU21D;53638;51.062;5.804;2022-10-22T03:40:52;14.33;118.99
66726;HTU21D;53638;51.062;5.804;2022-10-22T03:43:18;14.34;118.99
66726;HTU21D;53638;51.062;5.804;2022-10-22T03:45:43;14.36;118.99
66726;HTU21D;53638;51.062;5.804;2022-10-22T03:48:09;14.37;118.99
66726;HTU21D;53638;51.062;5.804;2022-10-22T03:50:35;14.37;118.99
66726;HTU21D;53638;51.062;5.804;2022-10-22T03:53:01;14.39;118.99
66726;HTU21D;53638;51.062;5.804;2022-10-22T03:55:27;14.39;118.99
66726;HTU21D;53638;51.062;5.804;2022-10-22T03:57:53;14.39;118.99
66726;HTU21D;53638;51.062;5.804;2022-10-22T04:00:19;14.38;118.99
66726;HTU21D;53638;51.062;5.804;2022-10-22T04:02:44;14.40;118.99
66726;HTU21D;53638;51.062;5.804;2022-10-22T04:05:10;14.39;118.99
66726;HTU21D;53638;51.062;5.804;2022-10-22T04:07:36;14.41;118.99
66726;HTU21D;53638;51.062;5.804;2022-10-22T04:10:03;14.40;118.99
66726;HTU21D;53638;51.062;5.804;2022-10-22T04:12:29;14.43;118.99
66726;HTU21D;53638;51.062;5.804;2022-10-22T04:14:54;14.42;118.99
66726;HTU21D;53638;51.062;5.804;2022-10-22T04:17:20;14.42;118.99
66726;HTU21D;53638;51.062;5.804;2022-10-22T04:19:46;14.44;118.99
66726;HTU21D;53638;51.062;5.804;2022-10-22T04:22:12;14.45;118.99
66726;HTU21D;53638;51.062;5.804;2022-10-22T04:24:38;14.45;118.99
66726;HTU21D;53638;51.062;5.804;2022-10-22T04:27:03;14.47;118.99
66726;HTU21D;53638;51.062;5.804;2022-10-22T04:29:29;14.44;118.99
66726;HTU21D;53638;51.062;5.804;2022-10-22T04:31:55;14.43;118.99
66726;HTU21D;53638;51.062;5.804;2022-10-22T04:34:21;14.44;118.99
66726;HTU21D;53638;51.062;5.804;2022-10-22T04:36:47;14.43;118.99
66726;HTU21D;53638;51.062;5.804;2022-10-22T04:39:13;14.43;118.99
66726;HTU21D;53638;51.062;5.804;2022-10-22T04:41:39;14.41;118.99
66726;HTU21D;53638;51.062;5.804;2022-10-22T04:44:06;14.39;118.99
66726;HTU21D;53638;51.062;5.804;2022-10-22T04:46:34;14.40;118.99
66726;HTU21D;53638;51.062;5.804;2022-10-22T04:49:00;14.40;118.99
66726;HTU21D;53638;51.062;5.804;2022-10-22T04:51:28;14.42;118.99
66726;HTU21D;53638;51.062;5.804;2022-10-22T04:53:54;14.43;118.99
66726;HTU21D;53638;51.062;5.804;2022-10-22T04:56:22;14.45;118.99
66726;HTU21D;53638;51.062;5.804;2022-10-22T04:58:55;14.45;118.99
66726;HTU21D;53638;51.062;5.804;2022-10-22T05:01:24;14.48;118.99
66726;HTU21D;53638;51.062;5.804;2022-10-22T05:03:52;14.50;118.99
66726;HTU21D;53638;51.062;5.804;2022-10-22T05:06:19;14.52;118.99
66726;HTU21D;53638;51.062;5.804;2022-10-22T05:08:46;14.54;118.99
66726;HTU21D;53638;51.062;5.804;2022-10-22T05:11:16;14.53;118.99
66726;HTU21D;53638;51.062;5.804;2022-10-22T05:13:43;14.53;118.99
66726;HTU21D;53638;51.062;5.804;2022-10-22T05:16:11;14.53;118.99
66726;HTU21D;53638;51.062;5.804;2022-10-22T05:18:39;14.55;118.99
66726;HTU21D;53638;51.062;5.804;2022-10-22T05:21:12;14.55;118.99
66726;HTU21D;53638;51.062;5.804;2022-10-22T05:23:39;14.53;118.99
66726;HTU21D;53638;51.062;5.804;2022-10-22T05:26:07;14.52;118.99
66726;HTU21D;53638;51.062;5.804;2022-10-22T05:28:33;14.51;118.99
66726;HTU21D;53638;51.062;5.804;2022-10-22T05:31:00;14.49;118.99
66726;HTU21D;53638;51.062;5.804;2022-10-22T05:33:28;14.48;118.99
66726;HTU21D;53638;51.062;5.804;2022-10-22T05:35:54;14.50;118.99
66726;HTU21D;53638;51.062;5.804;2022-10-22T05:38:20;14.49;118.99
66726;HTU21D;53638;51.062;5.804;2022-10-22T05:40:47;14.50;118.99
66726;HTU21D;53638;51.062;5.804;2022-10-22T05:43:12;14.52;118.99
66726;HTU21D;53638;51.062;5.804;2022-10-22T05:45:40;14.54;118.99
66726;HTU21D;53638;51.062;5.804;2022-10-22T05:48:08;14.58;118.99
66726;HTU21D;53638;51.062;5.804;2022-10-22T05:50:35;14.62;118.99
66726;HTU21D;53638;51.062;5.804;2022-10-22T05:53:02;14.62;118.99
66726;HTU21D;53638;51.062;5.804;2022-10-22T05:55:28;14.63;118.99
66726;HTU21D;53638;51.062;5.804;2022-10-22T05:57:54;14.60;118.99
66726;HTU21D;53638;51.062;5.804;2022-10-22T06:00:20;14.58;118.99
66726;HTU21D;53638;51.062;5.804;2022-10-22T06:02:50;14.59;118.99
66726;HTU21D;53638;51.062;5.804;2022-10-22T06:05:16;14.57;118.99
66726;HTU21D;53638;51.062;5.804;2022-10-22T06:07:42;14.56;118.99
66726;HTU21D;53638;51.062;5.804;2022-10-22T06:10:14;14.53;118.99
66726;HTU21D;53638;51.062;5.804;2022-10-22T06:12:41;14.51;118.99
66726;HTU21D;53638;51.062;5.804;2022-10-22T06:15:10;14.51;118.99
66726;HTU21D;53638;51.062;5.804;2022-10-22T06:17:36;14.52;118.99
66726;HTU21D;53638;51.062;5.804;2022-10-22T06:20:03;14.54;118.99
66726;HTU21D;53638;51.062;5.804;2022-10-22T06:22:28;14.55;118.99
66726;HTU21D;53638;51.062;5.804;2022-10-22T06:24:54;14.55;118.99
66726;HTU21D;53638;51.062;5.804;2022-10-22T06:27:26;14.55;118.99
66726;HTU21D;53638;51.062;5.804;2022-10-22T06:29:52;14.54;118.99
66726;HTU21D;53638;51.062;5.804;2022-10-22T06:32:18;14.55;118.99
66726;HTU21D;53638;51.062;5.804;2022-10-22T06:34:44;14.58;118.99
66726;HTU21D;53638;51.062;5.804;2022-10-22T06:37:10;14.54;118.99
66726;HTU21D;53638;51.062;5.804;2022-10-22T06:39:38;14.54;118.99
66726;HTU21D;53638;51.062;5.804;2022-10-22T06:42:16;14.56;118.99
66726;HTU21D;53638;51.062;5.804;2022-10-22T06:44:46;14.57;118.99
66726;HTU21D;53638;51.062;5.804;2022-10-22T06:47:12;14.60;118.99
66726;HTU21D;53638;51.062;5.804;2022-10-22T06:49:38;14.66;118.99
66726;HTU21D;53638;51.062;5.804;2022-10-22T06:52:04;14.68;118.99
66726;HTU21D;53638;51.062;5.804;2022-10-22T06:54:54;14.75;118.99
66726;HTU21D;53638;51.062;5.804;2022-10-22T06:57:20;14.80;118.99
66726;HTU21D;53638;51.062;5.804;2022-10-22T06:59:46;14.84;118.99
66726;HTU21D;53638;51.062;5.804;2022-10-22T07:02:12;14.88;118.99
66726;HTU21D;53638;51.062;5.804;2022-10-22T07:04:38;14.93;118.99
66726;HTU21D;53638;51.062;5.804;2022-10-22T07:07:03;14.98;118.99
66726;HTU21D;53638;51.062;5.804;2022-10-22T07:09:29;15.04;118.99
66726;HTU21D;53638;51.062;5.804;2022-10-22T07:11:55;15.10;118.99
66726;HTU21D;53638;51.062;5.804;2022-10-22T07:14:21;15.15;118.99
66726;HTU21D;53638;51.062;5.804;2022-10-22T07:16:47;15.15;118.99
66726;HTU21D;53638;51.062;5.804;2022-10-22T07:19:13;15.16;118.99
66726;HTU21D;53638;51.062;5.804;2022-10-22T07:21:39;15.15;118.99
66726;HTU21D;53638;51.062;5.804;2022-10-22T07:24:05;15.17;118.99
66726;HTU21D;53638;51.062;5.804;2022-10-22T07:26:31;15.21;118.99
66726;HTU21D;53638;51.062;5.804;2022-10-22T07:28:58;15.22;118.99
66726;HTU21D;53638;51.062;5.804;2022-10-22T07:31:24;15.22;118.99
66726;HTU21D;53638;51.062;5.804;2022-10-22T07:33:50;15.23;118.99
66726;HTU21D;53638;51.062;5.804;2022-10-22T07:36:16;15.24;118.99
66726;HTU21D;53638;51.062;5.804;2022-10-22T07:38:45;15.22;118.99
66726;HTU21D;53638;51.062;5.804;2022-10-22T07:41:12;15.25;118.99
66726;HTU21D;53638;51.062;5.804;2022-10-22T07:43:38;15.34;118.99
66726;HTU21D;53638;51.062;5.804;2022-10-22T07:46:04;15.49;118.99
66726;HTU21D;53638;51.062;5.804;2022-10-22T07:48:30;15.65;118.99
66726;HTU21D;53638;51.062;5.804;2022-10-22T07:50:56;15.80;118.99
66726;HTU21D;53638;51.062;5.804;2022-10-22T07:53:23;15.89;118.99
66726;HTU21D;53638;51.062;5.804;2022-10-22T07:55:50;15.98;118.99
66726;HTU21D;53638;51.062;5.804;2022-10-22T07:58:17;16.04;118.99
66726;HTU21D;53638;51.062;5.804;2022-10-22T08:00:43;16.08;118.99
66726;HTU21D;53638;51.062;5.804;2022-10-22T08:03:10;16.13;118.99
66726;HTU21D;53638;51.062;5.804;2022-10-22T08:05:37;16.18;118.99
66726;HTU21D;53638;51.062;5.804;2022-10-22T08:08:05;16.22;118.99
66726;HTU21D;53638;51.062;5.804;2022-10-22T08:10:32;16.28;118.99
66726;HTU21D;53638;51.062;5.804;2022-10-22T08:12:58;16.33;118.99
66726;HTU21D;53638;51.062;5.804;2022-10-22T08:15:24;16.40;118.99
66726;HTU21D;53638;51.062;5.804;2022-10-22T08:17:51;16.45;118.99
66726;HTU21D;53638;51.062;5.804;2022-10-22T08:20:17;16.52;118.99
66726;HTU21D;53638;51.062;5.804;2022-10-22T08:22:43;16.56;118.99
66726;HTU21D;53638;51.062;5.804;2022-10-22T08:25:10;16.61;118.99
66726;HTU21D;53638;51.062;5.804;2022-10-22T08:27:36;16.64;118.99
66726;HTU21D;53638;51.062;5.804;2022-10-22T08:30:04;16.64;118.99
66726;HTU21D;53638;51.062;5.804;2022-10-22T08:32:30;16.67;118.99
66726;HTU21D;53638;51.062;5.804;2022-10-22T08:34:56;16.74;118.99
66726;HTU21D;53638;51.062;5.804;2022-10-22T08:37:22;16.82;118.99
66726;HTU21D;53638;51.062;5.804;2022-10-22T08:39:48;16.82;118.99
66726;HTU21D;53638;51.062;5.804;2022-10-22T08:45:24;16.98;118.99
66726;HTU21D;53638;51.062;5.804;2022-10-22T08:48:03;17.02;118.99
66726;HTU21D;53638;51.062;5.804;2022-10-22T08:50:41;17.07;118.99
66726;HTU21D;53638;51.062;5.804;2022-10-22T08:53:15;17.16;118.99
66726;HTU21D;53638;51.062;5.804;2022-10-22T08:55:43;17.22;118.99
66726;HTU21D;53638;51.062;5.804;2022-10-22T09:00:58;17.39;118.99
66726;HTU21D;53638;51.062;5.804;2022-10-22T09:08:32;17.75;118.99
66726;HTU21D;53638;51.062;5.804;2022-10-22T09:11:12;17.76;118.99
66726;HTU21D;53638;51.062;5.804;2022-10-22T09:13:43;17.80;118.99
66726;HTU21D;53638;51.062;5.804;2022-10-22T09:16:14;17.80;118.99
66726;HTU21D;53638;51.062;5.804;2022-10-22T09:18:59;17.84;118.99
66726;HTU21D;53638;51.062;5.804;2022-10-22T09:21:55;17.93;118.99
66726;HTU21D;53638;51.062;5.804;2022-10-22T09:24:33;18.08;118.99
66726;HTU21D;53638;51.062;5.804;2022-10-22T09:27:11;18.20;118.99
66726;HTU21D;53638;51.062;5.804;2022-10-22T09:29:37;18.27;118.99
66726;HTU21D;53638;51.062;5.804;2022-10-22T09:32:04;18.34;118.99
66726;HTU21D;53638;51.062;5.804;2022-10-22T09:34:30;18.42;118.99
66726;HTU21D;53638;51.062;5.804;2022-10-22T09:37:00;18.51;118.99
66726;HTU21D;53638;51.062;5.804;2022-10-22T09:39:33;18.61;118.99
66726;HTU21D;53638;51.062;5.804;2022-10-22T09:41:59;18.73;118.99
66726;HTU21D;53638;51.062;5.804;2022-10-22T09:44:25;18.81;118.99
66726;HTU21D;53638;51.062;5.804;2022-10-22T09:46:51;18.86;118.99
66726;HTU21D;53638;51.062;5.804;2022-10-22T09:49:21;18.88;118.99
66726;HTU21D;53638;51.062;5.804;2022-10-22T09:51:56;18.95;118.99
66726;HTU21D;53638;51.062;5.804;2022-10-22T09:54:35;18.93;118.99
66726;HTU21D;53638;51.062;5.804;2022-10-22T09:57:11;18.99;118.99
66726;HTU21D;53638;51.062;5.804;2022-10-22T09:59:40;19.06;118.99
66726;HTU21D;53638;51.062;5.804;2022-10-22T10:02:13;19.21;118.99
66726;HTU21D;53638;51.062;5.804;2022-10-22T10:04:46;19.40;118.99
66726;HTU21D;53638;51.062;5.804;2022-10-22T10:07:18;19.53;118.99
66726;HTU21D;53638;51.062;5.804;2022-10-22T10:09:44;19.57;118.99
66726;HTU21D;53638;51.062;5.804;2022-10-22T10:15:27;19.58;118.99
66726;HTU21D;53638;51.062;5.804;2022-10-22T10:21:20;19.59;118.99
66726;HTU21D;53638;51.062;5.804;2022-10-22T10:23:59;19.52;118.99
66726;HTU21D;53638;51.062;5.804;2022-10-22T10:26:37;19.40;118.99
66726;HTU21D;53638;51.062;5.804;2022-10-22T10:32:14;19.12;118.99
66726;HTU21D;53638;51.062;5.804;2022-10-22T10:34:52;19.09;118.99
66726;HTU21D;53638;51.062;5.804;2022-10-22T10:37:24;19.08;118.99
66726;HTU21D;53638;51.062;5.804;2022-10-22T10:40:27;18.97;118.99
66726;HTU21D;53638;51.062;5.804;2022-10-22T10:43:09;18.89;118.99
66726;HTU21D;53638;51.062;5.804;2022-10-22T10:46:07;18.93;118.99
66726;HTU21D;53638;51.062;5.804;2022-10-22T10:49:09;18.94;118.99
66726;HTU21D;53638;51.062;5.804;2022-10-22T10:51:52;18.98;118.99
66726;HTU21D;53638;51.062;5.804;2022-10-22T10:54:43;18.98;118.99
66726;HTU21D;53638;51.062;5.804;2022-10-22T10:57:14;18.95;118.99
66726;HTU21D;53638;51.062;5.804;2022-10-22T10:59:48;18.98;118.99
66726;HTU21D;53638;51.062;5.804;2022-10-22T11:05:25;19.10;118.99
66726;HTU21D;53638;51.062;5.804;2022-10-22T11:07:54;19.15;118.99
66726;HTU21D;53638;51.062;5.804;2022-10-22T11:10:37;19.25;118.99
66726;HTU21D;53638;51.062;5.804;2022-10-22T11:18:41;19.27;118.99
66726;HTU21D;53638;51.062;5.804;2022-10-22T11:21:20;19.40;118.99
66726;HTU21D;53638;51.062;5.804;2022-10-22T11:23:55;19.43;118.99
66726;HTU21D;53638;51.062;5.804;2022-10-22T11:26:35;19.44;118.99
66726;HTU21D;53638;51.062;5.804;2022-10-22T11:29:08;19.47;118.99
66726;HTU21D;53638;51.062;5.804;2022-10-22T11:31:37;19.51;118.99
66726;HTU21D;53638;51.062;5.804;2022-10-22T11:34:15;19.55;118.99
66726;HTU21D;53638;51.062;5.804;2022-10-22T11:36:45;19.61;118.99
66726;HTU21D;53638;51.062;5.804;2022-10-22T11:39:31;19.72;118.99
66726;HTU21D;53638;51.062;5.804;2022-10-22T11:42:02;19.95;118.99
66726;HTU21D;53638;51.062;5.804;2022-10-22T11:44:28;20.11;118.99
66726;HTU21D;53638;51.062;5.804;2022-10-22T11:47:02;20.22;118.99
66726;HTU21D;53638;51.062;5.804;2022-10-22T11:49:44;20.32;118.99
66726;HTU21D;53638;51.062;5.804;2022-10-22T11:52:25;20.41;118.99
66726;HTU21D;53638;51.062;5.804;2022-10-22T11:54:55;21.49;118.99
66726;HTU21D;53638;51.062;5.804;2022-10-22T11:57:37;22.23;118.99
66726;HTU21D;53638;51.062;5.804;2022-10-22T12:00:46;23.08;118.99
66726;HTU21D;53638;51.062;5.804;2022-10-22T12:03:03;24.85;118.99
66726;HTU21D;53638;51.062;5.804;2022-10-22T12:05:44;26.01;118.99
66726;HTU21D;53638;51.062;5.804;2022-10-22T12:08:16;26.21;118.99
66726;HTU21D;53638;51.062;5.804;2022-10-22T12:13:26;25.00;118.99
66726;HTU21D;53638;51.062;5.804;2022-10-22T12:15:57;24.11;118.99
66726;HTU21D;53638;51.062;5.804;2022-10-22T12:18:29;23.52;118.99
66726;HTU21D;53638;51.062;5.804;2022-10-22T12:20:57;23.13;118.99
66726;HTU21D;53638;51.062;5.804;2022-10-22T12:23:29;22.84;118.99
66726;HTU21D;53638;51.062;5.804;2022-10-22T12:25:58;22.60;118.99
66726;HTU21D;53638;51.062;5.804;2022-10-22T12:28:28;22.35;118.99
66726;HTU21D;53638;51.062;5.804;2022-10-22T12:31:05;22.39;118.99
66726;HTU21D;53638;51.062;5.804;2022-10-22T12:33:31;22.37;118.99
66726;HTU21D;53638;51.062;5.804;2022-10-22T12:35:57;22.27;118.99
66726;HTU21D;53638;51.062;5.804;2022-10-22T12:38:28;22.14;118.99
66726;HTU21D;53638;51.062;5.804;2022-10-22T12:40:55;22.06;118.99
66726;HTU21D;53638;51.062;5.804;2022-10-22T12:43:26;21.99;118.99
66726;HTU21D;53638;51.062;5.804;2022-10-22T12:45:55;21.95;118.99
66726;HTU21D;53638;51.062;5.804;2022-10-22T12:48:28;21.96;118.99
66726;HTU21D;53638;51.062;5.804;2022-10-22T12:51:00;22.11;118.99
66726;HTU21D;53638;51.062;5.804;2022-10-22T12:56:02;21.76;118.99
66726;HTU21D;53638;51.062;5.804;2022-10-22T12:58:37;21.64;118.99
66726;HTU21D;53638;51.062;5.804;2022-10-22T13:01:04;21.64;118.99
66726;HTU21D;53638;51.062;5.804;2022-10-22T13:03:34;21.60;118.99
66726;HTU21D;53638;51.062;5.804;2022-10-22T13:08:38;21.54;118.99
66726;HTU21D;53638;51.062;5.804;2022-10-22T13:11:08;21.45;118.99
66726;HTU21D;53638;51.062;5.804;2022-10-22T13:13:42;21.32;118.99
66726;HTU21D;53638;51.062;5.804;2022-10-22T13:16:24;21.33;118.99
66726;HTU21D;53638;51.062;5.804;2022-10-22T13:18:52;21.25;118.99
66726;HTU21D;53638;51.062;5.804;2022-10-22T13:21:28;21.33;118.99
66726;HTU21D;53638;51.062;5.804;2022-10-22T13:23:57;21.40;118.99
66726;HTU21D;53638;51.062;5.804;2022-10-22T13:26:31;21.32;118.99
66726;HTU21D;53638;51.062;5.804;2022-10-22T13:28:58;21.17;118.99
66726;HTU21D;53638;51.062;5.804;2022-10-22T13:31:28;21.11;118.99
66726;HTU21D;53638;51.062;5.804;2022-10-22T13:34:02;21.09;118.99
66726;HTU21D;53638;51.062;5.804;2022-10-22T13:36:31;21.13;118.99
66726;HTU21D;53638;51.062;5.804;2022-10-22T13:38:57;21.20;118.99
66726;HTU21D;53638;51.062;5.804;2022-10-22T13:41:26;21.18;118.99
66726;HTU21D;53638;51.062;5.804;2022-10-22T13:43:53;21.20;118.99
66726;HTU21D;53638;51.062;5.804;2022-10-22T13:46:20;21.16;118.99
66726;HTU21D;53638;51.062;5.804;2022-10-22T13:48:48;21.20;118.99
66726;HTU21D;53638;51.062;5.804;2022-10-22T13:51:18;21.30;118.99
66726;HTU21D;53638;51.062;5.804;2022-10-22T13:53:46;21.33;118.99
66726;HTU21D;53638;51.062;5.804;2022-10-22T13:56:14;21.33;118.99
66726;HTU21D;53638;51.062;5.804;2022-10-22T13:58:42;21.28;118.99
66726;HTU21D;53638;51.062;5.804;2022-10-22T14:01:21;21.17;118.99
66726;HTU21D;53638;51.062;5.804;2022-10-22T14:03:51;21.05;118.99
66726;HTU21D;53638;51.062;5.804;2022-10-22T14:06:20;21.09;118.99
66726;HTU21D;53638;51.062;5.804;2022-10-22T14:08:49;21.16;118.99
66726;HTU21D;53638;51.062;5.804;2022-10-22T14:11:18;21.20;118.99
66726;HTU21D;53638;51.062;5.804;2022-10-22T14:13:44;21.19;118.99
66726;HTU21D;53638;51.062;5.804;2022-10-22T14:16:17;21.18;118.99
66726;HTU21D;53638;51.062;5.804;2022-10-22T14:18:46;21.18;118.99
66726;HTU21D;53638;51.062;5.804;2022-10-22T14:21:14;21.30;118.99
66726;HTU21D;53638;51.062;5.804;2022-10-22T14:23:42;21.34;118.99
66726;HTU21D;53638;51.062;5.804;2022-10-22T14:26:24;21.38;118.99
66726;HTU21D;53638;51.062;5.804;2022-10-22T14:28:51;21.48;118.99
66726;HTU21D;53638;51.062;5.804;2022-10-22T14:31:17;21.40;118.99
66726;HTU21D;53638;51.062;5.804;2022-10-22T14:33:43;21.45;118.99
66726;HTU21D;53638;51.062;5.804;2022-10-22T14:36:13;21.57;118.99
66726;HTU21D;53638;51.062;5.804;2022-10-22T14:38:40;21.63;118.99
66726;HTU21D;53638;51.062;5.804;2022-10-22T14:41:19;21.63;118.99
66726;HTU21D;53638;51.062;5.804;2022-10-22T14:43:46;21.59;118.99
66726;HTU21D;53638;51.062;5.804;2022-10-22T14:46:14;21.45;118.99
66726;HTU21D;53638;51.062;5.804;2022-10-22T14:48:40;21.25;118.99
66726;HTU21D;53638;51.062;5.804;2022-10-22T14:51:09;21.24;118.99
66726;HTU21D;53638;51.062;5.804;2022-10-22T14:53:36;21.28;118.99
66726;HTU21D;53638;51.062;5.804;2022-10-22T14:56:02;21.23;118.99
66726;HTU21D;53638;51.062;5.804;2022-10-22T14:58:28;21.18;118.99
66726;HTU21D;53638;51.062;5.804;2022-10-22T15:00:54;21.27;118.99
66726;HTU21D;53638;51.062;5.804;2022-10-22T15:03:19;21.39;118.99
66726;HTU21D;53638;51.062;5.804;2022-10-22T15:05:45;21.51;118.99
66726;HTU21D;53638;51.062;5.804;2022-10-22T15:08:13;21.48;118.99
66726;HTU21D;53638;51.062;5.804;2022-10-22T15:10:39;21.42;118.99
66726;HTU21D;53638;51.062;5.804;2022-10-22T15:13:06;21.39;118.99
66726;HTU21D;53638;51.062;5.804;2022-10-22T15:15:32;21.39;118.99
66726;HTU21D;53638;51.062;5.804;2022-10-22T15:17:58;21.34;118.99
66726;HTU21D;53638;51.062;5.804;2022-10-22T15:20:23;21.25;118.99
66726;HTU21D;53638;51.062;5.804;2022-10-22T15:22:49;21.24;118.99
66726;HTU21D;53638;51.062;5.804;2022-10-22T15:25:15;21.23;118.99
66726;HTU21D;53638;51.062;5.804;2022-10-22T15:27:41;21.18;118.99
66726;HTU21D;53638;51.062;5.804;2022-10-22T15:30:07;21.18;118.99
66726;HTU21D;53638;51.062;5.804;2022-10-22T15:32:34;21.16;118.99
66726;HTU21D;53638;51.062;5.804;2022-10-22T15:35:00;21.17;118.99
66726;HTU21D;53638;51.062;5.804;2022-10-22T15:37:26;21.16;118.99
66726;HTU21D;53638;51.062;5.804;2022-10-22T15:39:52;21.11;118.99
66726;HTU21D;53638;51.062;5.804;2022-10-22T15:42:18;21.02;118.99
66726;HTU21D;53638;51.062;5.804;2022-10-22T15:44:44;20.96;118.99
66726;HTU21D;53638;51.062;5.804;2022-10-22T15:47:10;20.84;118.99
66726;HTU21D;53638;51.062;5.804;2022-10-22T15:49:38;20.77;118.99
66726;HTU21D;53638;51.062;5.804;2022-10-22T15:52:05;20.65;118.99
66726;HTU21D;53638;51.062;5.804;2022-10-22T15:54:32;20.51;118.99
66726;HTU21D;53638;51.062;5.804;2022-10-22T15:56:59;20.39;118.99
66726;HTU21D;53638;51.062;5.804;2022-10-22T15:59:28;20.31;118.99
66726;HTU21D;53638;51.062;5.804;2022-10-22T16:01:54;20.28;118.99
66726;HTU21D;53638;51.062;5.804;2022-10-22T16:04:20;20.21;118.99
66726;HTU21D;53638;51.062;5.804;2022-10-22T16:06:48;20.15;118.99
66726;HTU21D;53638;51.062;5.804;2022-10-22T16:09:17;20.12;118.99
66726;HTU21D;53638;51.062;5.804;2022-10-22T16:11:44;20.11;118.99